Time;durP1;ratioP1;P1;durP2;ratioP2;P2;SDS_P1;SDS_P2;PMS_P1;PMS_P2;Temp;Humidity;BMP_temperature;BMP_pressure;BME280_temperature;BME280_humidity;BME280_pressure;Samples;Min_cycle;Max_cycle;Signal;HPM_P1;HPM_P2
2022/06/09 00:00:15;;;;;;;21.17;19.20;;;16.40;99.90;;;;;;4590760;19;20480;-33
2022/06/09 00:02:06;;;;;;;25.00;22.40;;;16.40;99.90;;;;;;4589773;19;20026;-33
2022/06/09 00:03:45;;;;;;;26.70;23.98;;;16.40;99.90;;;;;;4590831;19;20022;-33
2022/06/09 00:05:17;;;;;;;25.20;22.70;;;16.40;99.90;;;;;;4590678;19;20018;-33
2022/06/09 00:06:59;;;;;;;23.95;21.67;;;16.40;99.90;;;;;;4589715;19;20040;-31
2022/06/09 00:08:30;;;;;;;;;;;16.30;99.90;;;;;;4590435;19;20022;-31
2022/06/09 00:10:07;;;;;;;25.45;23.00;;;16.40;99.90;;;;;;4590686;19;19935;-33
2022/06/09 00:11:41;;;;;;;26.02;23.42;;;16.40;99.90;;;;;;4589415;19;20010;-32
2022/06/09 00:13:12;;;;;;;26.38;23.50;;;16.40;99.90;;;;;;4589282;19;20014;-32
2022/06/09 00:14:43;;;;;;;24.02;21.73;;;16.40;99.90;;;;;;4589396;19;20018;-31
2022/06/09 00:16:15;;;;;;;25.10;22.58;;;16.30;99.90;;;;;;4590137;19;20361;-33
2022/06/09 00:17:46;;;;;;;23.60;21.48;;;16.40;99.90;;;;;;4590019;19;20023;-33
2022/06/09 00:19:18;;;;;;;23.65;21.35;;;16.40;99.90;;;;;;4591015;19;20031;-32
2022/06/09 00:20:49;;;;;;;21.58;19.50;;;16.40;99.90;;;;;;4590662;19;20048;-32
2022/06/09 00:22:20;;;;;;;22.75;20.67;;;16.40;99.90;;;;;;4589513;19;20139;-31
2022/06/09 00:23:51;;;;;;;22.67;20.33;;;16.40;99.90;;;;;;4591117;19;20009;-31
2022/06/09 00:25:23;;;;;;;23.90;21.60;;;16.40;99.90;;;;;;4589425;19;20011;-33
2022/06/09 00:26:55;;;;;;;23.48;21.25;;;16.40;99.90;;;;;;4590071;19;20031;-32
2022/06/09 00:28:26;;;;;;;;;;;16.40;99.90;;;;;;4589056;19;20016;-31
2022/06/09 00:29:57;;;;;;;22.33;20.13;;;16.40;99.90;;;;;;4590129;19;19978;-32
2022/06/09 00:31:28;;;;;;;23.25;21.05;;;16.40;99.90;;;;;;4590387;19;20014;-33
2022/06/09 00:32:59;;;;;;;23.00;20.80;;;16.40;99.90;;;;;;4592154;19;20468;-31
2022/06/09 00:34:31;;;;;;;22.02;20.02;;;16.40;99.90;;;;;;4589831;19;20375;-33
2022/06/09 00:36:02;;;;;;;23.30;21.27;;;16.40;99.90;;;;;;4589388;19;20390;-31
2022/06/09 00:37:33;;;;;;;22.52;20.48;;;16.40;99.90;;;;;;4589803;19;20476;-31
2022/06/09 00:39:05;;;;;;;23.67;21.42;;;16.40;99.90;;;;;;4589339;19;20062;-32
2022/06/09 00:40:36;;;;;;;22.38;20.35;;;16.40;99.90;;;;;;4589987;19;20002;-31
2022/06/09 00:42:09;;;;;;;22.83;20.73;;;16.40;99.90;;;;;;4589467;19;20046;-32
2022/06/09 00:43:41;;;;;;;23.98;21.88;;;16.40;99.90;;;;;;4588845;19;20012;-32
2022/06/09 00:45:33;;;;;;;23.13;21.10;;;16.40;99.90;;;;;;4589989;19;20035;-31
2022/06/09 00:47:04;;;;;;;24.33;22.13;;;16.40;99.90;;;;;;4589229;19;20028;-33
2022/06/09 00:48:47;;;;;;;24.13;22.00;;;16.50;99.90;;;;;;4589537;19;20006;-32
2022/06/09 00:50:20;;;;;;;24.40;22.00;;;16.50;99.90;;;;;;4588928;19;20031;-32
2022/06/09 00:51:54;;;;;;;24.60;22.40;;;16.50;99.90;;;;;;4588895;19;20008;-31
2022/06/09 00:53:28;;;;;;;24.00;21.90;;;16.50;99.90;;;;;;4588100;19;20002;-31
2022/06/09 00:55:02;;;;;;;24.45;22.17;;;16.50;99.90;;;;;;4589325;19;20021;-33
2022/06/09 00:56:35;;;;;;;24.65;22.35;;;16.50;99.90;;;;;;4589307;19;20022;-32
2022/06/09 00:58:08;;;;;;;24.25;22.05;;;16.50;99.90;;;;;;4588774;19;20007;-32
2022/06/09 00:59:41;;;;;;;24.27;21.98;;;16.50;99.90;;;;;;4588698;19;20029;-31
2022/06/09 01:01:13;;;;;;;23.90;21.48;;;16.50;99.90;;;;;;4589654;19;20007;-33
2022/06/09 01:02:44;;;;;;;25.65;23.25;;;16.50;99.90;;;;;;4588135;19;20353;-31
2022/06/09 01:04:17;;;;;;;25.02;22.63;;;16.50;99.90;;;;;;4589501;19;20017;-34
2022/06/09 01:05:48;;;;;;;27.25;24.60;;;16.40;99.90;;;;;;4588386;19;20430;-32
2022/06/09 01:07:33;;;;;;;27.58;24.98;;;16.40;99.90;;;;;;4589173;19;20035;-32
2022/06/09 01:09:10;;;;;;;27.15;24.42;;;16.40;99.90;;;;;;4588404;19;20377;-33
2022/06/09 01:10:41;;;;;;;25.35;22.75;;;16.40;99.90;;;;;;4589667;19;20007;-31
2022/06/09 01:12:29;;;;;;;26.02;23.52;;;16.40;99.90;;;;;;4588873;19;20030;-32
2022/06/09 01:14:00;;;;;;;25.20;22.73;;;16.40;99.90;;;;;;4588919;19;19999;-31
2022/06/09 01:15:46;;;;;;;25.92;23.45;;;16.40;99.90;;;;;;4588414;19;20002;-32
2022/06/09 01:17:25;;;;;;;26.48;23.98;;;16.40;99.90;;;;;;4589172;19;20042;-31
2022/06/09 01:19:17;;;;;;;24.95;22.60;;;16.40;99.90;;;;;;4588536;19;20010;-31
2022/06/09 01:20:58;;;;;;;25.55;23.13;;;16.40;99.90;;;;;;4588596;19;20512;-31
2022/06/09 01:22:32;;;;;;;25.10;22.80;;;16.40;99.90;;;;;;4587201;19;20032;-33
2022/06/09 01:24:41;;;;;;;25.25;22.85;;;16.40;99.90;;;;;;4591287;19;20011;-32
2022/06/09 01:26:23;;;;;;;25.17;22.77;;;16.40;99.90;;;;;;4592355;19;20010;-33
2022/06/09 01:27:57;;;;;;;35.97;32.15;;;16.40;99.90;;;;;;4591699;19;20070;-33
2022/06/09 01:29:57;;;;;;;34.30;30.77;;;16.40;99.90;;;;;;4592041;19;20014;-33
2022/06/09 01:31:30;;;;;;;;;;;16.40;99.90;;;;;;4592321;19;20029;-33
2022/06/09 01:33:03;;;;;;;;;;;16.40;99.90;;;;;;4594031;19;19914;-32
2022/06/09 01:34:43;;;;;;;;;;;16.40;99.90;;;;;;4592657;19;20561;-31
2022/06/09 01:36:32;;;;;;;;;;;16.40;99.90;;;;;;4592568;19;20455;-33
2022/06/09 01:38:04;;;;;;;;;;;16.40;99.90;;;;;;4592637;19;20327;-32
2022/06/09 01:39:53;;;;;;;;;;;16.40;99.90;;;;;;4592750;19;20238;-32
2022/06/09 01:41:25;;;;;;;;;;;16.40;99.90;;;;;;4592397;19;19914;-33
2022/06/09 01:42:56;;;;;;;;;;;16.40;99.90;;;;;;4592354;19;19918;-31
2022/06/09 01:44:27;;;;;;;;;;;16.30;99.90;;;;;;4592166;19;19974;-32
2022/06/09 01:46:01;;;;;;;;;;;16.30;99.90;;;;;;4592030;19;20334;-31
2022/06/09 01:47:50;;;;;;;;;;;16.30;99.90;;;;;;4592579;19;20250;-32
2022/06/09 01:49:25;;;;;;;;;;;16.30;99.90;;;;;;4592782;19;19982;-32
2022/06/09 01:51:00;;;;;;;;;;;16.40;99.90;;;;;;4590875;19;19919;-33
2022/06/09 01:52:31;;;;;;;;;;;16.30;99.90;;;;;;4592643;19;19919;-32
2022/06/09 01:54:03;;;;;;;;;;;16.30;99.90;;;;;;4591228;19;19918;-31
2022/06/09 01:55:35;;;;;;;;;;;16.40;99.90;;;;;;4592412;19;20415;-32
2022/06/09 01:57:07;;;;;;;;;;;16.40;99.90;;;;;;4592215;19;20006;-33
2022/06/09 01:58:41;;;;;;;;;;;16.40;99.90;;;;;;4592216;19;19972;-33
2022/06/09 02:00:13;;;;;;;;;;;16.40;99.90;;;;;;4592401;19;19911;-33
2022/06/09 02:01:46;;;;;;;;;;;16.40;99.90;;;;;;4592563;19;20017;-32
2022/06/09 02:03:23;;;;;;;;;;;16.30;99.90;;;;;;4592141;19;20036;-33
2022/06/09 02:04:58;;;;;;;;;;;16.40;99.90;;;;;;4592324;19;19975;-31
2022/06/09 02:06:29;;;;;;;;;;;16.40;99.90;;;;;;4592121;19;19911;-33
2022/06/09 02:08:01;;;;;;;;;;;16.30;99.90;;;;;;4592833;19;19918;-33
2022/06/09 02:09:32;;;;;;;;;;;16.30;99.90;;;;;;4592974;19;20006;-33
2022/06/09 02:11:07;;;;;;;;;;;16.30;99.90;;;;;;4593115;19;20270;-33
2022/06/09 02:12:38;;;;;;;;;;;16.30;99.90;;;;;;4594192;19;19982;-33
2022/06/09 02:14:09;;;;;;;;;;;16.30;99.90;;;;;;4591972;19;19911;-33
2022/06/09 02:15:44;;;;;;;;;;;16.30;99.90;;;;;;4593701;19;19926;-31
2022/06/09 02:17:15;;;;;;;;;;;16.30;99.90;;;;;;4593314;19;20374;-32
2022/06/09 02:18:47;;;;;;;;;;;16.30;99.90;;;;;;4594102;19;19914;-32
2022/06/09 02:20:19;;;;;;;;;;;16.30;99.90;;;;;;4594305;19;19911;-32
2022/06/09 02:21:50;;;;;;;;;;;16.30;99.90;;;;;;4592928;19;20281;-32
2022/06/09 02:23:21;;;;;;;;;;;16.30;99.90;;;;;;4593842;19;19914;-31
2022/06/09 02:24:52;;;;;;;;;;;16.30;99.90;;;;;;4594121;19;20257;-31
2022/06/09 02:26:23;;;;;;;;;;;16.30;99.90;;;;;;4594700;19;19915;-32
2022/06/09 02:27:54;;;;;;;;;;;16.30;99.90;;;;;;4592614;19;20358;-32
2022/06/09 02:29:26;;;;;;;;;;;16.30;99.90;;;;;;4593730;19;19915;-32
2022/06/09 02:30:57;;;;;;;;;;;16.30;99.90;;;;;;4594553;19;20238;-33
2022/06/09 02:32:28;;;;;;;;;;;16.30;99.90;;;;;;4593607;19;19922;-32
2022/06/09 02:33:59;;;;;;;;;;;16.40;99.90;;;;;;4592026;19;20333;-31
2022/06/09 02:35:30;;;;;;;;;;;16.30;99.90;;;;;;4592717;19;19925;-31
2022/06/09 02:37:01;;;;;;;;;;;16.30;99.90;;;;;;4593471;19;19918;-31
2022/06/09 02:38:32;;;;;;;;;;;16.40;99.90;;;;;;4593769;19;19911;-33
2022/06/09 02:40:03;;;;;;;;;;;16.40;99.90;;;;;;4593843;19;20000;-33
2022/06/09 02:41:34;;;;;;;;;;;16.40;99.90;;;;;;4593719;19;19919;-31
2022/06/09 02:43:05;;;;;;;;;;;16.40;99.90;;;;;;4594183;19;19911;-33
2022/06/09 02:44:36;;;;;;;;;;;16.40;99.90;;;;;;4593430;19;19911;-31
2022/06/09 02:46:08;;;;;;;;;;;16.40;99.90;;;;;;4594037;19;19935;-33
2022/06/09 02:47:38;;;;;;;;;;;16.40;99.90;;;;;;4592489;19;20366;-32
2022/06/09 02:49:10;;;;;;;;;;;16.40;99.90;;;;;;4593075;19;19918;-33
2022/06/09 02:50:41;;;;;;;;;;;16.40;99.90;;;;;;4591906;19;19934;-33
2022/06/09 02:52:12;;;;;;;;;;;16.50;99.90;;;;;;4592731;19;19919;-32
2022/06/09 02:53:43;;;;;;;;;;;16.50;99.90;;;;;;4592816;19;20379;-32
2022/06/09 02:55:14;;;;;;;;;;;16.50;99.90;;;;;;4593189;19;19919;-33
2022/06/09 02:56:45;;;;;;;;;;;16.50;99.90;;;;;;4593853;19;19918;-32
2022/06/09 02:58:16;;;;;;;;;;;16.40;99.90;;;;;;4594076;19;19932;-31
2022/06/09 02:59:47;;;;;;;;;;;16.40;99.90;;;;;;4592813;19;19932;-31
2022/06/09 03:01:18;;;;;;;;;;;16.40;99.90;;;;;;4592638;19;19910;-33
2022/06/09 03:02:50;;;;;;;;;;;16.40;99.90;;;;;;4593331;19;19919;-33
2022/06/09 03:04:21;;;;;;;;;;;16.50;99.90;;;;;;4594086;19;20356;-33
2022/06/09 03:05:52;;;;;;;;;;;16.40;99.90;;;;;;4593063;19;19911;-31
2022/06/09 03:07:24;;;;;;;;;;;16.50;99.90;;;;;;4593340;19;19925;-32
2022/06/09 03:08:55;;;;;;;;;;;16.50;99.90;;;;;;4593527;19;19939;-32
2022/06/09 03:10:27;;;;;;;;;;;16.50;99.90;;;;;;4593381;19;19928;-31
2022/06/09 03:11:57;;;;;;;;;;;16.50;99.90;;;;;;4593003;19;20238;-33
2022/06/09 03:13:28;;;;;;;;;;;16.50;99.90;;;;;;4592892;19;19967;-32
2022/06/09 03:15:00;;;;;;;;;;;16.50;99.90;;;;;;4593474;19;20328;-33
2022/06/09 03:16:31;;;;;;;;;;;16.50;99.90;;;;;;4593592;19;19953;-32
2022/06/09 03:18:02;;;;;;;;;;;16.50;99.90;;;;;;4592867;19;19919;-33
2022/06/09 03:19:33;;;;;;;;;;;16.50;99.90;;;;;;4592763;19;19926;-31
2022/06/09 03:21:04;;;;;;;;;;;16.50;99.90;;;;;;4591751;19;19929;-30
2022/06/09 03:22:36;;;;;;;;;;;16.60;99.90;;;;;;4591861;19;19922;-33
2022/06/09 03:24:07;;;;;;;;;;;16.60;99.90;;;;;;4592370;19;20350;-33
2022/06/09 03:25:37;;;;;;;;;;;16.60;99.90;;;;;;4592823;19;19911;-33
2022/06/09 03:27:09;;;;;;;;;;;16.60;99.90;;;;;;4592874;19;19918;-33
2022/06/09 03:28:41;;;;;;;;;;;16.60;99.90;;;;;;4592532;19;20325;-31
2022/06/09 03:30:12;;;;;;;;;;;16.60;99.90;;;;;;4592818;19;20265;-31
2022/06/09 03:31:43;;;;;;;;;;;16.60;99.90;;;;;;4592440;19;20348;-32
2022/06/09 03:33:14;;;;;;;;;;;16.60;99.90;;;;;;4592983;19;19915;-31
2022/06/09 03:34:45;;;;;;;;;;;16.60;99.90;;;;;;4592490;19;19983;-33
2022/06/09 03:36:16;;;;;;;;;;;16.60;99.90;;;;;;4592873;19;19915;-31
2022/06/09 03:37:47;;;;;;;;;;;16.60;99.90;;;;;;4591710;19;19985;-33
2022/06/09 03:39:18;;;;;;;;;;;16.60;99.90;;;;;;4591424;19;19934;-32
2022/06/09 03:40:49;;;;;;;;;;;16.60;99.90;;;;;;4591881;19;19923;-32
2022/06/09 03:42:20;;;;;;;;;;;16.60;99.90;;;;;;4592447;19;19943;-33
2022/06/09 03:43:51;;;;;;;;;;;16.60;99.90;;;;;;4592827;19;20358;-32
2022/06/09 03:45:22;;;;;;;;;;;16.70;99.90;;;;;;4592254;19;19970;-33
2022/06/09 03:46:54;;;;;;;;;;;16.70;99.90;;;;;;4590539;19;19936;-34
2022/06/09 03:48:25;;;;;;;;;;;16.70;99.90;;;;;;4592531;19;19914;-33
2022/06/09 03:49:56;;;;;;;;;;;16.70;99.90;;;;;;4591877;19;19935;-32
2022/06/09 03:51:27;;;;;;;;;;;16.70;99.90;;;;;;4592142;19;19911;-34
2022/06/09 03:52:58;;;;;;;;;;;16.80;99.90;;;;;;4592398;19;19922;-33
2022/06/09 03:54:29;;;;;;;;;;;16.70;99.90;;;;;;4591185;19;19922;-32
2022/06/09 03:56:00;;;;;;;;;;;16.70;99.90;;;;;;4591875;19;19940;-33
2022/06/09 03:57:31;;;;;;;;;;;16.80;99.90;;;;;;4592847;19;19944;-33
2022/06/09 03:59:02;;;;;;;;;;;16.70;99.90;;;;;;4591523;19;19919;-33
2022/06/09 04:00:33;;;;;;;;;;;16.80;99.90;;;;;;4591145;19;19931;-31
2022/06/09 04:02:04;;;;;;;;;;;16.80;99.90;;;;;;4591407;19;19915;-33
2022/06/09 04:03:35;;;;;;;;;;;16.80;99.90;;;;;;4591184;19;19923;-32
2022/06/09 04:05:07;;;;;;;;;;;16.80;99.90;;;;;;4590024;19;20338;-33
2022/06/09 04:06:38;;;;;;;;;;;16.80;99.90;;;;;;4590247;19;19914;-31
2022/06/09 04:08:09;;;;;;;;;;;16.80;99.90;;;;;;4588931;19;20309;-34
2022/06/09 04:09:40;;;;;;;;;;;16.80;99.90;;;;;;4589684;19;19915;-31
2022/06/09 04:11:12;;;;;;;;;;;16.80;99.90;;;;;;4589971;19;20267;-34
2022/06/09 04:12:43;;;;;;;;;;;16.80;99.90;;;;;;4592649;19;19910;-34
2022/06/09 04:14:14;;;;;;;;;;;16.90;99.90;;;;;;4591183;19;20132;-31
2022/06/09 04:15:46;;;;;;;;;;;16.90;99.90;;;;;;4591541;19;19947;-34
2022/06/09 04:17:17;;;;;;;;;;;16.90;99.90;;;;;;4592112;19;19913;-33
2022/06/09 04:18:48;;;;;;;;;;;16.90;99.90;;;;;;4590626;19;19922;-34
2022/06/09 04:20:19;;;;;;;;;;;16.90;99.90;;;;;;4590412;19;20546;-33
2022/06/09 04:21:50;;;;;;;;;;;16.90;99.90;;;;;;4592407;19;19967;-34
2022/06/09 04:23:21;;;;;;;;;;;16.90;99.90;;;;;;4592289;19;19927;-31
2022/06/09 04:24:52;;;;;;;;;;;16.90;99.90;;;;;;4591546;19;19921;-31
2022/06/09 04:26:24;;;;;;;;;;;16.90;99.90;;;;;;4590856;19;19915;-33
2022/06/09 04:27:55;;;;;;;;;;;17.00;99.90;;;;;;4590655;19;20269;-32
2022/06/09 04:29:27;;;;;;;;;;;17.00;99.90;;;;;;4589250;19;20340;-32
2022/06/09 04:30:58;;;;;;;;;;;17.00;99.90;;;;;;4589396;19;19923;-31
2022/06/09 04:32:29;;;;;;;;;;;17.00;99.90;;;;;;4589690;19;19921;-32
2022/06/09 04:34:00;;;;;;;;;;;17.00;99.90;;;;;;4589330;19;19945;-33
2022/06/09 04:35:31;;;;;;;;;;;17.00;99.90;;;;;;4592335;19;19922;-34
2022/06/09 04:37:02;;;;;;;;;;;17.10;99.90;;;;;;4589959;19;19922;-33
2022/06/09 04:38:33;;;;;;;;;;;17.00;99.90;;;;;;4591514;19;19925;-31
2022/06/09 04:40:04;;;;;;;;;;;17.10;99.90;;;;;;4590034;19;19979;-31
2022/06/09 04:41:36;;;;;;;;;;;17.10;99.90;;;;;;4591158;19;19943;-32
2022/06/09 04:43:08;;;;;;;;;;;17.20;99.90;;;;;;4589991;19;20016;-34
2022/06/09 04:44:39;;;;;;;;;;;17.20;99.90;;;;;;4589617;19;19914;-32
2022/06/09 04:46:10;;;;;;;;;;;17.20;99.90;;;;;;4589811;19;19926;-32
2022/06/09 04:47:42;;;;;;;;;;;17.20;99.90;;;;;;4588144;19;19943;-28
2022/06/09 04:49:13;;;;;;;;;;;17.20;99.90;;;;;;4588111;19;20028;-33
2022/06/09 04:50:44;;;;;;;;;;;17.20;99.90;;;;;;4589485;19;19922;-31
2022/06/09 04:52:15;;;;;;;;;;;17.20;99.90;;;;;;4591159;19;19918;-31
2022/06/09 04:53:46;;;;;;;;;;;17.20;99.90;;;;;;4589047;19;20379;-32
2022/06/09 04:55:17;;;;;;;;;;;17.30;99.90;;;;;;4590312;19;19919;-33
2022/06/09 04:56:48;;;;;;;;;;;17.20;99.90;;;;;;4590412;19;19971;-33
2022/06/09 04:58:19;;;;;;;;;;;17.30;99.90;;;;;;4589516;19;19922;-30
2022/06/09 04:59:50;;;;;;;;;;;17.30;99.90;;;;;;4589446;19;20482;-33
2022/06/09 05:01:25;;;;;;;;;;;17.30;99.90;;;;;;4589072;19;19923;-31
2022/06/09 05:02:59;;;;;;;;;;;17.30;99.90;;;;;;4588021;19;19919;-29
2022/06/09 05:04:29;;;;;;;;;;;17.30;99.90;;;;;;4590451;19;20273;-30
2022/06/09 05:06:01;;;;;;;;;;;17.30;99.90;;;;;;4591128;19;19944;-32
2022/06/09 05:07:32;;;;;;;;;;;17.40;99.90;;;;;;4591231;19;19915;-30
2022/06/09 05:09:03;;;;;;;;;;;17.40;99.90;;;;;;4591091;19;19915;-31
2022/06/09 05:10:34;;;;;;;;;;;17.40;99.90;;;;;;4590090;19;19915;-31
2022/06/09 05:12:05;;;;;;;;;;;17.40;99.90;;;;;;4590175;19;19925;-31
2022/06/09 05:13:36;;;;;;;;;;;17.50;99.90;;;;;;4589313;19;19936;-31
2022/06/09 05:15:08;;;;;;;;;;;17.50;99.90;;;;;;4589362;19;19919;-34
2022/06/09 05:16:38;;;;;;;;;;;17.60;99.90;;;;;;4588689;19;19922;-32
2022/06/09 05:18:11;;;;;;;;;;;17.60;99.90;;;;;;4592079;19;20269;-34
2022/06/09 05:19:42;;;;;;;;;;;17.60;99.90;;;;;;4590630;19;20318;-34
2022/06/09 05:21:13;;;;;;;;;;;17.60;99.90;;;;;;4590069;19;19938;-32
2022/06/09 05:22:44;;;;;;;;;;;17.60;99.90;;;;;;4590624;19;19911;-33
2022/06/09 05:24:15;;;;;;;;;;;17.60;99.90;;;;;;4590895;19;19938;-32
2022/06/09 05:25:46;;;;;;;;;;;17.60;99.90;;;;;;4591156;19;19934;-33
2022/06/09 05:27:17;;;;;;;;;;;17.70;99.90;;;;;;4590376;19;19914;-34
2022/06/09 05:28:48;;;;;;;;;;;17.60;99.90;;;;;;4590711;19;19911;-31
2022/06/09 05:30:23;;;;;;;;;;;17.70;99.90;;;;;;4591150;19;19919;-31
2022/06/09 05:31:54;;;;;;;;;;;17.70;99.90;;;;;;4590275;19;19910;-33
2022/06/09 05:33:26;;;;;;;;;;;17.70;99.90;;;;;;4590202;19;19932;-31
2022/06/09 05:34:57;;;;;;;;;;;17.70;99.90;;;;;;4589290;19;19923;-32
2022/06/09 05:36:28;;;;;;;;;;;17.80;99.90;;;;;;4590355;19;19911;-30
2022/06/09 05:45:17;;;;;;;;;;;17.80;99.90;;;;;;4590491;19;19922;-33
2022/06/09 05:46:49;;;;;;;;;;;17.80;99.90;;;;;;4589816;19;19940;-33
2022/06/09 05:48:20;;;;;;;;;;;17.80;99.90;;;;;;4592450;19;19915;-33
2022/06/09 05:49:51;;;;;;;;;;;17.80;99.90;;;;;;4589961;19;20317;-32
2022/06/09 05:51:22;;;;;;;;;;;17.80;99.90;;;;;;4589302;19;19937;-32
2022/06/09 05:52:53;;;;;;;;;;;17.80;99.90;;;;;;4590440;19;20350;-33
2022/06/09 05:54:24;;;;;;;;;;;17.80;99.90;;;;;;4588856;19;19919;-34
2022/06/09 05:55:55;;;;;;;;;;;17.80;99.90;;;;;;4589056;19;19950;-32
2022/06/09 05:57:26;;;;;;;;;;;17.80;99.90;;;;;;4589565;19;19948;-32
2022/06/09 05:58:59;;;;;;;;;;;17.90;99.90;;;;;;4589353;19;19919;-31
2022/06/09 06:00:30;;;;;;;;;;;17.80;99.90;;;;;;4590731;19;19925;-32
2022/06/09 06:02:01;;;;;;;;;;;17.90;99.90;;;;;;4588811;19;20342;-32
2022/06/09 06:03:32;;;;;;;;;;;17.80;99.90;;;;;;4589127;19;19915;-32
2022/06/09 06:05:03;;;;;;;;;;;17.90;99.90;;;;;;4589490;19;19970;-31
2022/06/09 06:06:34;;;;;;;;;;;17.90;99.90;;;;;;4591021;19;19947;-31
2022/06/09 06:08:06;;;;;;;;;;;17.90;99.90;;;;;;4588673;19;19919;-31
2022/06/09 06:09:37;;;;;;;;;;;17.90;99.90;;;;;;4591686;19;19925;-31
2022/06/09 06:11:09;;;;;;;;;;;17.90;99.90;;;;;;4594074;19;20268;-31
2022/06/09 06:12:40;;;;;;;;;;;17.90;99.90;;;;;;4593517;19;19923;-33
2022/06/09 06:14:11;;;;;;;;;;;17.90;99.90;;;;;;4591387;19;19919;-31
2022/06/09 06:15:42;;;;;;;;;;;17.90;99.90;;;;;;4593718;19;19914;-31
2022/06/09 06:17:13;;;;;;;;;;;17.90;99.90;;;;;;4593520;19;19929;-32
2022/06/09 06:18:44;;;;;;;;;;;17.90;99.90;;;;;;4594281;19;20247;-34
2022/06/09 06:20:15;;;;;;;;;;;17.90;99.90;;;;;;4594149;19;19915;-32
2022/06/09 06:21:46;;;;;;;;;;;17.90;99.90;;;;;;4595995;19;19918;-31
2022/06/09 06:23:18;;;;;;;;;;;17.90;99.90;;;;;;4595877;19;19927;-31
2022/06/09 06:24:49;;;;;;;;;;;18.00;99.90;;;;;;4595563;19;20369;-32
2022/06/09 06:26:20;;;;;;;;;;;18.00;99.90;;;;;;4594621;19;19949;-32
2022/06/09 06:27:51;;;;;;;;;;;17.90;99.90;;;;;;4593759;19;20333;-31
2022/06/09 06:29:23;;;;;;;;;;;17.90;99.90;;;;;;4593800;19;19957;-32
2022/06/09 06:30:54;;;;;;;;;;;17.90;99.90;;;;;;4594018;19;19911;-33
2022/06/09 06:32:25;;;;;;;;;;;17.90;99.90;;;;;;4594500;19;20332;-34
2022/06/09 06:33:56;;;;;;;;;;;17.90;99.90;;;;;;4593101;19;19922;-33
2022/06/09 06:35:27;;;;;;;;;;;17.90;99.90;;;;;;4593595;19;20302;-32
2022/06/09 06:36:58;;;;;;;;;;;17.80;99.90;;;;;;4592663;19;19922;-31
2022/06/09 06:38:32;;;;;;;;;;;17.90;99.90;;;;;;4593654;19;19918;-33
2022/06/09 06:40:03;;;;;;;;;;;17.90;99.90;;;;;;4593964;19;19915;-32
2022/06/09 06:41:34;;;;;;;;;;;17.90;99.90;;;;;;4593958;19;19923;-32
2022/06/09 06:43:05;;;;;;;;;;;17.90;99.90;;;;;;4594830;19;19947;-32
2022/06/09 06:44:36;;;;;;;;;;;17.90;99.90;;;;;;4593423;19;19914;-33
2022/06/09 06:46:07;;;;;;;;;;;17.90;99.90;;;;;;4594168;19;20334;-31
2022/06/09 06:47:39;;;;;;;;;;;17.90;99.90;;;;;;4593513;19;19923;-31
2022/06/09 06:49:10;;;;;;;;;;;17.90;99.90;;;;;;4594220;19;19911;-31
2022/06/09 06:50:41;;;;;;;;;;;17.90;99.90;;;;;;4592246;19;20003;-32
2022/06/09 06:52:12;;;;;;;;;;;17.90;99.90;;;;;;4592226;19;19919;-33
2022/06/09 06:53:43;;;;;;;;;;;17.90;99.90;;;;;;4594941;19;19922;-32
2022/06/09 06:55:15;;;;;;;;;;;17.90;99.90;;;;;;4593997;19;19911;-34
2022/06/09 06:56:46;;;;;;;;;;;17.90;99.90;;;;;;4593405;19;19926;-32
2022/06/09 06:58:17;;;;;;;;;;;17.90;99.90;;;;;;4593444;19;19911;-34
2022/06/09 06:59:48;;;;;;;;;;;17.90;99.90;;;;;;4592484;19;20349;-33
2022/06/09 07:01:19;;;;;;;;;;;17.90;99.90;;;;;;4595425;19;19914;-34
2022/06/09 07:02:54;;;;;;;;;;;17.90;99.90;;;;;;4589340;19;19986;-32
2022/06/09 07:04:25;;;;;;;;;;;17.90;99.90;;;;;;4593251;19;20257;-32
2022/06/09 07:05:57;;;;;;;;;;;17.90;99.90;;;;;;4594485;19;20365;-33
2022/06/09 07:07:28;;;;;;;;;;;17.90;99.90;;;;;;4592749;19;19934;-33
2022/06/09 07:08:59;;;;;;;;;;;17.90;99.90;;;;;;4591901;19;19992;-33
2022/06/09 07:10:31;;;;;;;;;;;17.90;99.90;;;;;;4591197;19;19915;-32
2022/06/09 07:12:02;;;;;;;;;;;17.90;99.90;;;;;;4591202;19;19982;-32
2022/06/09 07:13:36;;;;;;;;;;;18.00;99.90;;;;;;4590091;19;19914;-32
2022/06/09 07:15:07;;;;;;;;;;;18.00;99.90;;;;;;4590665;19;19919;-32
2022/06/09 07:16:38;;;;;;;;;;;18.00;99.90;;;;;;4590706;19;20348;-32
2022/06/09 07:18:10;;;;;;;;;;;18.00;99.90;;;;;;4590842;19;19911;-33
2022/06/09 07:19:41;;;;;;;;;;;18.00;99.90;;;;;;4590610;19;19923;-33
2022/06/09 07:21:11;;;;;;;;;;;18.00;99.90;;;;;;4587766;19;19911;-32
2022/06/09 07:22:42;;;;;;;;;;;18.00;99.90;;;;;;4591695;19;20009;-33
2022/06/09 07:24:14;;;;;;;;;;;18.10;99.90;;;;;;4590470;19;19911;-31
2022/06/09 07:25:45;;;;;;;;;;;18.10;99.90;;;;;;4590747;19;20402;-32
2022/06/09 07:27:16;;;;;;;;;;;18.10;99.90;;;;;;4590688;19;19918;-33
2022/06/09 07:28:46;;;;;;;;;;;18.10;99.90;;;;;;4590623;19;19965;-32
2022/06/09 07:30:18;;;;;;;;;;;18.10;99.90;;;;;;4590186;19;19923;-33
2022/06/09 07:31:49;;;;;;;;;;;18.10;99.90;;;;;;4591414;19;20338;-32
2022/06/09 07:33:20;;;;;;;;;;;18.10;99.90;;;;;;4591547;19;19926;-31
2022/06/09 07:34:51;;;;;;;;;;;18.10;99.90;;;;;;4590528;19;19911;-32
2022/06/09 07:36:23;;;;;;;;;;;18.10;99.90;;;;;;4590212;19;19922;-31
2022/06/09 07:37:54;;;;;;;;;;;18.10;99.90;;;;;;4590597;19;19917;-33
2022/06/09 07:39:25;;;;;;;;;;;18.10;99.90;;;;;;4590233;19;19926;-32
2022/06/09 07:40:56;;;;;;;;;;;18.10;99.90;;;;;;4590177;19;19915;-32
2022/06/09 07:42:27;;;;;;;;;;;18.10;99.90;;;;;;4590288;19;19933;-32
2022/06/09 07:43:59;;;;;;;;;;;18.10;99.90;;;;;;4590620;19;19944;-32
2022/06/09 07:45:31;;;;;;;;;;;18.10;99.90;;;;;;4590231;19;19915;-33
2022/06/09 07:47:02;;;;;;;;;;;18.10;99.90;;;;;;4590222;19;20326;-33
2022/06/09 07:48:33;;;;;;;;;;;18.10;99.90;;;;;;4594514;19;19959;-31
2022/06/09 07:50:05;;;;;;;;;;;18.20;99.90;;;;;;4591145;19;19915;-33
2022/06/09 07:51:36;;;;;;;;;;;18.20;99.90;;;;;;4592705;19;19915;-33
2022/06/09 07:53:07;;;;;;;;;;;18.20;99.90;;;;;;4593087;19;19939;-33
2022/06/09 07:54:38;;;;;;;;;;;18.20;99.90;;;;;;4591463;19;19986;-33
2022/06/09 07:56:10;;;;;;;;;;;18.20;99.90;;;;;;4593631;19;19923;-31
2022/06/09 07:57:41;;;;;;;;;;;18.20;99.90;;;;;;4594360;19;19923;-32
2022/06/09 07:59:12;;;;;;;;;;;18.10;99.90;;;;;;4593040;19;19926;-33
2022/06/09 08:00:47;;;;;;;;;;;18.20;99.90;;;;;;4591842;19;19932;-31
2022/06/09 08:02:19;;;;;;;;;;;18.20;99.90;;;;;;4593522;19;19923;-31
2022/06/09 08:03:50;;;;;;;;;;;18.20;99.90;;;;;;4592342;19;20041;-32
2022/06/09 08:05:21;;;;;;;;;;;18.30;99.90;;;;;;4591352;19;20344;-31
2022/06/09 08:06:52;;;;;;;;;;;18.30;99.90;;;;;;4592433;19;20332;-33
2022/06/09 08:08:23;;;;;;;;;;;18.30;99.90;;;;;;4593143;19;19915;-32
2022/06/09 08:09:54;;;;;;;;;;;18.20;99.90;;;;;;4591801;19;19923;-32
2022/06/09 08:11:26;;;;;;;;;;;18.30;99.90;;;;;;4593652;19;20333;-33
2022/06/09 08:12:59;;;;;;;;;;;18.20;99.90;;;;;;4594338;19;19922;-32
2022/06/09 08:14:30;;;;;;;;;;;18.20;99.90;;;;;;4591939;19;20394;-31
2022/06/09 08:16:01;;;;;;;;;;;18.20;99.90;;;;;;4591883;19;19923;-31
2022/06/09 08:17:32;;;;;;;;;;;18.30;99.90;;;;;;4591700;19;19979;-32
2022/06/09 08:19:04;;;;;;;;;;;18.30;99.90;;;;;;4591457;19;19954;-33
2022/06/09 08:20:36;;;;;;;;;;;18.30;99.90;;;;;;4593645;19;19943;-33
2022/06/09 08:22:06;;;;;;;;;;;18.30;99.90;;;;;;4591823;19;19910;-33
2022/06/09 08:23:37;;;;;;;;;;;18.30;99.90;;;;;;4593385;19;20259;-33
2022/06/09 08:25:09;;;;;;;;;;;18.30;99.90;;;;;;4591804;19;19919;-33
2022/06/09 08:26:40;;;;;;;;;;;18.30;99.90;;;;;;4591249;19;19915;-33
2022/06/09 08:28:12;;;;;;;;;;;18.40;99.90;;;;;;4591289;19;19982;-32
2022/06/09 08:29:43;;;;;;;;;;;18.40;99.90;;;;;;4591922;19;19935;-31
2022/06/09 08:31:14;;;;;;;;;;;18.40;99.90;;;;;;4591103;19;20361;-33
2022/06/09 08:32:45;;;;;;;;;;;18.40;99.90;;;;;;4590509;19;19936;-32
2022/06/09 08:34:16;;;;;;;;;;;18.40;99.90;;;;;;4591240;19;19915;-32
2022/06/09 08:35:47;;;;;;;;;;;18.40;99.90;;;;;;4591989;19;20271;-31
2022/06/09 08:37:18;;;;;;;;;;;18.50;99.90;;;;;;4592068;19;19925;-33
2022/06/09 08:38:49;;;;;;;;;;;18.50;99.90;;;;;;4591178;19;19921;-32
2022/06/09 08:40:24;;;;;;;;;;;18.50;99.90;;;;;;4591364;19;19923;-32
2022/06/09 08:42:30;;;;;;;;;;;18.50;99.90;;;;;;4591278;19;19911;-33
2022/06/09 08:44:10;;;;;;;;;;;18.50;99.90;;;;;;4589697;19;19989;-32
2022/06/09 08:45:42;;;;;;;;;;;18.50;99.90;;;;;;4589167;19;19915;-31
2022/06/09 08:47:12;;;;;;;;;;;18.60;99.90;;;;;;4588909;19;19951;-33
2022/06/09 08:48:43;;;;;;;;;;;18.60;99.90;;;;;;4589918;19;19918;-31
2022/06/09 08:50:19;;;;;;;;;;;18.60;99.90;;;;;;4588432;19;20364;-31
2022/06/09 08:51:50;;;;;;;;;;;18.80;99.90;;;;;;4588745;19;20330;-30